Time;durP1;ratioP1;P1;durP2;ratioP2;P2;SDS_P1;SDS_P2;PMS_P1;PMS_P2;Temp;Humidity;BMP_temperature;BMP_pressure;BME280_temperature;BME280_humidity;BME280_pressure;Samples;Min_cycle;Max_cycle;Signal;HPM_P1;HPM_P2
2022/05/08 00:00:38;;;;;;;;;;;;;;;18.08;62.81;102519.19;1029911;28;611;-66
2022/05/08 00:01:30;;;;;;;;;;;;;;;18.06;63.08;102518.44;1024772;29;675;-64
2022/05/08 00:02:20;;;;;;;;;;;;;;;18.06;63.18;102522.97;1026663;28;619;-63
2022/05/08 00:03:11;;;;;;;;;;;;;;;18.05;62.86;102519.41;1025907;28;654;-65
2022/05/08 00:04:01;;;;;;;;;;;;;;;18.05;63.68;102519.41;1026076;28;694;-64
2022/05/08 00:04:52;;;;;;;;;;;;;;;18.04;62.73;102521.25;1025946;28;655;-64
2022/05/08 00:05:43;;;;;;;;;;;;;;;18.04;62.81;102517.69;1025920;28;631;-65
2022/05/08 00:06:33;;;;;;;;;;;;;;;18.03;62.65;102515.94;1025817;28;678;-65
2022/05/08 00:07:24;;;;;;;;;;;;;;;18.02;63.19;102516.94;1025830;28;701;-64
2022/05/08 00:08:14;;;;;;;;;;;;;;;18.02;62.71;102514.22;1025328;29;753;-64
2022/05/08 00:09:05;;;;;;;;;;;;;;;18.03;62.98;102510.56;1025811;28;671;-63
2022/05/08 00:09:55;;;;;;;;;;;;;;;18.03;63.11;102515.94;1025832;28;1990;-63
2022/05/08 00:10:45;;;;;;;;;;;;;;;18.02;62.90;102511.53;1021836;29;1685;-64
2022/05/08 00:11:36;;;;;;;;;;;;;;;18.02;63.33;102519.63;1022085;28;650;-64
2022/05/08 00:12:26;;;;;;;;;;;;;;;18.01;62.94;102516.06;1024432;29;721;-64
2022/05/08 00:13:17;;;;;;;;;;;;;;;18.02;62.89;102519.63;1025817;28;698;-64
2022/05/08 00:14:07;;;;;;;;;;;;;;;18.00;62.64;102518.84;1024104;29;707;-64
2022/05/08 00:14:58;;;;;;;;;;;;;;;18.01;63.29;102515.19;1025939;28;682;-64
2022/05/08 00:15:48;;;;;;;;;;;;;;;17.99;63.21;102515.31;1025828;28;643;-63
2022/05/08 00:16:38;;;;;;;;;;;;;;;18.00;63.32;102516.16;1025744;28;619;-64
2022/05/08 00:17:34;;;;;;;;;;;;;;;18.00;63.19;102521.56;1024132;29;672;-64
2022/05/08 00:18:24;;;;;;;;;;;;;;;18.00;62.29;102519.72;1025445;28;631;-64
2022/05/08 00:19:14;;;;;;;;;;;;;;;17.99;62.97;102523.38;1026088;28;671;-64
2022/05/08 00:20:05;;;;;;;;;;;;;;;17.99;63.24;102519.81;1025816;28;646;-63
2022/05/08 00:20:56;;;;;;;;;;;;;;;17.97;63.34;102521.75;1027316;28;1656;-64
2022/05/08 00:21:46;;;;;;;;;;;;;;;17.97;62.99;102522.63;1029075;28;666;-63
2022/05/08 00:22:36;;;;;;;;;;;;;;;17.96;63.13;102526.28;1029078;28;1030;-63
2022/05/08 00:23:27;;;;;;;;;;;;;;;17.97;62.22;102521.75;1028241;28;631;-63
2022/05/08 00:24:17;;;;;;;;;;;;;;;17.96;62.61;102514.66;1029856;28;627;-63
2022/05/08 00:25:08;;;;;;;;;;;;;;;17.95;62.25;102523.69;1029741;28;705;-63
2022/05/08 00:25:58;;;;;;;;;;;;;;;17.96;63.03;102530.81;1027983;28;694;-63
2022/05/08 00:26:48;;;;;;;;;;;;;;;17.96;62.17;102529.00;1029230;28;714;-63
2022/05/08 00:27:40;;;;;;;;;;;;;;;17.95;62.88;102521.88;1029975;28;643;-64
2022/05/08 00:28:30;;;;;;;;;;;;;;;17.97;62.47;102519.06;1027909;28;637;-63
2022/05/08 00:29:21;;;;;;;;;;;;;;;17.95;62.51;102523.69;1029267;28;694;-63
2022/05/08 00:30:11;;;;;;;;;;;;;;;17.96;62.64;102525.44;1028033;28;636;-63
2022/05/08 00:31:02;;;;;;;;;;;;;;;17.94;63.01;102522.84;1028857;28;1671;-63
2022/05/08 00:31:52;;;;;;;;;;;;;;;17.94;62.81;102524.66;1029809;28;627;-63
2022/05/08 00:32:42;;;;;;;;;;;;;;;17.94;62.90;102522.84;1029216;28;626;-63
2022/05/08 00:33:33;;;;;;;;;;;;;;;17.93;62.52;102525.63;1024414;29;682;-63
2022/05/08 00:34:23;;;;;;;;;;;;;;;17.92;62.85;102521.22;1024287;29;612;-63
2022/05/08 00:35:14;;;;;;;;;;;;;;;17.91;62.17;102523.06;1028074;28;718;-64
2022/05/08 00:36:04;;;;;;;;;;;;;;;17.91;62.79;102522.22;1029720;28;630;-64
2022/05/08 00:36:55;;;;;;;;;;;;;;;17.91;62.65;102522.22;1024480;29;737;-63
2022/05/08 00:37:45;;;;;;;;;;;;;;;17.91;62.34;102527.59;1024958;29;647;-63
2022/05/08 00:38:36;;;;;;;;;;;;;;;17.90;61.85;102526.75;1028062;28;588;-63
2022/05/08 00:39:26;;;;;;;;;;;;;;;17.89;61.77;102521.44;1028292;28;1648;-63
2022/05/08 00:40:17;;;;;;;;;;;;;;;17.89;62.65;102526.84;1028136;28;635;-63
2022/05/08 00:41:07;;;;;;;;;;;;;;;17.89;62.09;102526.84;1028141;28;694;-63
2022/05/08 00:41:57;;;;;;;;;;;;;;;17.88;62.34;102525.13;1029439;28;695;-63
2022/05/08 00:42:48;;;;;;;;;;;;;;;17.88;62.09;102533.22;1028132;28;663;-63
2022/05/08 00:43:38;;;;;;;;;;;;;;;17.88;62.01;102535.91;1029613;28;687;-63
2022/05/08 00:44:29;;;;;;;;;;;;;;;17.89;62.10;102534.94;1029424;28;718;-63
2022/05/08 00:45:19;;;;;;;;;;;;;;;17.88;61.59;102535.91;1031084;28;650;-64
2022/05/08 00:46:09;;;;;;;;;;;;;;;17.87;61.82;102535.03;1033961;28;753;-64
2022/05/08 00:47:00;;;;;;;;;;;;;;;17.86;61.37;102530.63;1032069;28;636;-64
2022/05/08 00:47:50;;;;;;;;;;;;;;;17.86;61.86;102536.00;1024773;29;639;-63
2022/05/08 00:48:41;;;;;;;;;;;;;;;17.86;62.28;102529.75;1024976;29;665;-63
2022/05/08 00:49:32;;;;;;;;;;;;;;;17.85;61.93;102533.41;1028267;28;1675;-64
2022/05/08 00:50:23;;;;;;;;;;;;;;;17.84;62.00;102532.53;1028210;28;675;-63
2022/05/08 00:51:13;;;;;;;;;;;;;;;17.84;62.61;102537.06;1024651;29;745;-64
2022/05/08 00:52:04;;;;;;;;;;;;;;;17.84;61.39;102534.38;1026111;28;697;-63
2022/05/08 00:52:54;;;;;;;;;;;;;;;17.85;61.97;102530.72;1025704;28;655;-63
2022/05/08 00:53:44;;;;;;;;;;;;;;;17.84;61.70;102532.53;1025237;29;628;-63
2022/05/08 00:54:35;;;;;;;;;;;;;;;17.83;61.79;102535.34;1025153;29;710;-64
2022/05/08 00:55:26;;;;;;;;;;;;;;;17.80;62.47;102531.03;1025011;29;1120;-63
2022/05/08 00:56:16;;;;;;;;;;;;;;;17.81;61.70;102537.28;1025726;29;686;-64
2022/05/08 00:57:07;;;;;;;;;;;;;;;17.80;62.11;102532.84;1025152;29;702;-63
2022/05/08 00:57:57;;;;;;;;;;;;;;;17.80;62.46;102532.84;1025719;29;695;-64
2022/05/08 00:58:48;;;;;;;;;;;;;;;17.79;62.12;102532.00;1025418;28;729;-64
2022/05/08 00:59:38;;;;;;;;;;;;;;;17.79;61.94;102532.00;1024673;29;1771;-63
2022/05/08 01:00:29;;;;;;;;;;;;;;;17.78;61.58;102534.78;1030583;28;671;-63
2022/05/08 01:01:19;;;;;;;;;;;;;;;17.79;61.89;102536.53;1029481;28;1711;-64
2022/05/08 01:02:10;;;;;;;;;;;;;;;17.77;61.71;102533.94;1029947;28;710;-65
2022/05/08 01:03:00;;;;;;;;;;;;;;;17.78;61.69;102532.97;1029717;28;694;-66
2022/05/08 01:03:51;;;;;;;;;;;;;;;17.77;61.57;102536.63;1029736;28;658;-65
2022/05/08 01:04:41;;;;;;;;;;;;;;;17.77;61.91;102536.63;1024935;29;714;-65
2022/05/08 01:05:31;;;;;;;;;;;;;;;17.76;61.75;102540.28;1024231;29;600;-63
2022/05/08 01:06:22;;;;;;;;;;;;;;;17.74;61.92;102531.44;1028502;28;656;-63
2022/05/08 01:07:12;;;;;;;;;;;;;;;17.75;61.96;102537.69;1029654;28;619;-63
2022/05/08 01:08:03;;;;;;;;;;;;;;;17.73;61.32;102534.25;1028185;28;698;-63
2022/05/08 01:08:54;;;;;;;;;;;;;;;17.73;61.45;102539.66;1029998;28;635;-63
2022/05/08 01:09:45;;;;;;;;;;;;;;;17.74;61.64;102535.97;1029347;28;1914;-63
2022/05/08 01:10:35;;;;;;;;;;;;;;;17.74;61.31;102535.97;1029592;28;604;-65
2022/05/08 01:11:26;;;;;;;;;;;;;;;17.72;61.90;102533.41;1029548;28;690;-63
2022/05/08 01:12:16;;;;;;;;;;;;;;;17.70;61.27;102529.94;1023735;29;750;-64
2022/05/08 01:13:07;;;;;;;;;;;;;;;17.71;61.39;102537.06;1025690;29;616;-63
2022/05/08 01:13:57;;;;;;;;;;;;;;;17.71;61.28;102542.47;1029041;28;678;-63
2022/05/08 01:14:48;;;;;;;;;;;;;;;17.71;61.72;102536.19;1029312;28;631;-64
2022/05/08 01:15:38;;;;;;;;;;;;;;;17.68;61.98;102530.03;1027972;28;647;-64
2022/05/08 01:16:29;;;;;;;;;;;;;;;17.69;61.58;102531.78;1028499;28;694;-64
2022/05/08 01:17:19;;;;;;;;;;;;;;;17.68;61.23;102531.88;1029242;28;611;-64
2022/05/08 01:18:11;;;;;;;;;;;;;;;17.69;61.49;102533.59;1023761;29;655;-63
2022/05/08 01:19:02;;;;;;;;;;;;;;;17.67;61.24;102533.69;1025229;28;647;-64
2022/05/08 01:19:52;;;;;;;;;;;;;;;17.65;61.40;102535.63;1027936;28;1647;-65
2022/05/08 01:20:43;;;;;;;;;;;;;;;17.65;60.95;102534.78;1029677;28;642;-65
2022/05/08 01:21:33;;;;;;;;;;;;;;;17.66;61.42;102539.19;1029668;28;780;-64
2022/05/08 01:22:24;;;;;;;;;;;;;;;17.65;61.09;102532.06;1028148;28;775;-64
2022/05/08 01:23:15;;;;;;;;;;;;;;;17.64;60.85;102539.31;1029603;28;772;-63
2022/05/08 01:24:05;;;;;;;;;;;;;;;17.64;60.77;102533.91;1025217;28;1700;-64
2022/05/08 01:24:56;;;;;;;;;;;;;;;17.63;61.40;102533.97;1021354;29;608;-64
2022/05/08 01:25:46;;;;;;;;;;;;;;;17.63;60.75;102533.97;1024900;29;705;-64
2022/05/08 01:26:36;;;;;;;;;;;;;;;17.62;61.19;102534.94;1025695;28;607;-64
2022/05/08 01:27:27;;;;;;;;;;;;;;;17.62;61.41;102534.94;1025528;28;681;-64
2022/05/08 01:28:18;;;;;;;;;;;;;;;17.62;61.07;102543.88;1025709;28;630;-64
2022/05/08 01:29:08;;;;;;;;;;;;;;;17.62;60.44;102526.84;1023948;29;631;-63
2022/05/08 01:29:58;;;;;;;;;;;;;;;17.61;60.99;102535.91;1027600;28;1906;-63
2022/05/08 01:30:49;;;;;;;;;;;;;;;17.61;60.86;102531.38;1027423;28;690;-63
2022/05/08 01:31:39;;;;;;;;;;;;;;;17.60;60.95;102540.44;1028847;28;685;-64
2022/05/08 01:32:30;;;;;;;;;;;;;;;17.60;61.08;102536.88;1029554;28;599;-64
2022/05/08 01:33:20;;;;;;;;;;;;;;;17.61;60.90;102536.78;1028041;28;702;-64
2022/05/08 01:34:10;;;;;;;;;;;;;;;17.59;61.13;102536.00;1027734;28;828;-64
2022/05/08 01:35:02;;;;;;;;;;;;;;;17.58;60.51;102539.66;1029928;28;659;-62
2022/05/08 01:35:52;;;;;;;;;;;;;;;17.58;60.80;102538.81;1027910;28;647;-63
2022/05/08 01:36:43;;;;;;;;;;;;;;;17.58;60.51;102531.56;1028418;28;619;-63
2022/05/08 01:37:34;;;;;;;;;;;;;;;17.59;60.51;102537.84;1029142;28;661;-63
2022/05/08 01:38:24;;;;;;;;;;;;;;;17.58;60.60;102538.81;1029445;28;634;-61
2022/05/08 01:39:14;;;;;;;;;;;;;;;17.56;60.57;102538.03;1029524;28;623;-62
2022/05/08 01:40:05;;;;;;;;;;;;;;;17.56;60.56;102543.44;1025255;28;735;-62
2022/05/08 01:40:57;;;;;;;;;;;;;;;17.57;60.82;102546.03;1025642;28;693;-63
2022/05/08 01:41:47;;;;;;;;;;;;;;;17.54;60.76;102540.88;1021900;28;681;-62
2022/05/08 01:42:37;;;;;;;;;;;;;;;17.55;60.79;102539.03;1020244;29;635;-62
2022/05/08 01:43:31;;;;;;;;;;;;;;;17.55;60.51;102545.28;1025464;29;659;-63
2022/05/08 01:44:24;;;;;;;;;;;;;;;17.55;60.51;102542.59;1025614;28;655;-62
2022/05/08 01:45:14;;;;;;;;;;;;;;;17.54;60.77;102543.56;1025175;28;631;-62
2022/05/08 01:46:04;;;;;;;;;;;;;;;17.55;60.49;102539.91;1021186;29;663;-62
2022/05/08 01:48:21;;;;;;;;;;;;;;;17.54;60.15;102548.97;1020282;29;616;-62
2022/05/08 01:48:25;;;;;;;;;;;;;;;17.53;60.46;102546.34;1027712;28;1742;-61
2022/05/08 01:49:16;;;;;;;;;;;;;;;17.52;60.85;102542.81;1023690;29;699;-61
2022/05/08 01:50:06;;;;;;;;;;;;;;;17.53;60.87;102546.34;1024587;29;1948;-63
2022/05/08 01:50:57;;;;;;;;;;;;;;;17.51;60.64;102541.06;1028286;28;1276;-62
2022/05/08 01:51:47;;;;;;;;;;;;;;;17.51;60.52;102549.16;1028689;28;632;-62
2022/05/08 01:52:37;;;;;;;;;;;;;;;17.52;61.06;102541.94;1029079;28;611;-62
2022/05/08 01:53:28;;;;;;;;;;;;;;;17.50;60.40;102551.94;1024892;29;666;-62
2022/05/08 01:54:18;;;;;;;;;;;;;;;17.50;60.06;102538.47;1025379;28;615;-63
2022/05/08 01:55:09;;;;;;;;;;;;;;;17.52;60.26;102552.72;1029343;28;1124;-62
2022/05/08 01:55:59;;;;;;;;;;;;;;;17.50;60.66;102549.25;1029053;28;677;-62
2022/05/08 01:56:49;;;;;;;;;;;;;;;17.48;60.71;102541.25;1029239;28;611;-62
2022/05/08 01:57:40;;;;;;;;;;;;;;;17.47;60.22;102539.53;1034252;28;816;-62
2022/05/08 01:58:30;;;;;;;;;;;;;;;17.48;60.84;102545.78;1029042;28;780;-62
2022/05/08 01:59:21;;;;;;;;;;;;;;;17.46;60.77;102547.72;1027682;28;698;-62
2022/05/08 02:00:11;;;;;;;;;;;;;;;17.46;60.49;102547.72;1030200;28;1735;-62
2022/05/08 02:01:02;;;;;;;;;;;;;;;17.45;60.08;102546.84;1029833;28;662;-63
2022/05/08 02:01:52;;;;;;;;;;;;;;;17.47;60.29;102549.47;1030129;28;1672;-62
2022/05/08 02:02:44;;;;;;;;;;;;;;;17.45;60.41;102546.84;1028510;28;675;-62
2022/05/08 02:03:34;;;;;;;;;;;;;;;17.45;59.96;102548.69;1030359;28;682;-63
2022/05/08 02:04:25;;;;;;;;;;;;;;;17.45;59.90;102552.25;1029987;28;661;-63
2022/05/08 02:05:15;;;;;;;;;;;;;;;17.44;60.31;102553.22;1030266;28;669;-62
2022/05/08 02:06:06;;;;;;;;;;;;;;;17.41;60.53;102545.31;1024943;29;737;-62
2022/05/08 02:06:56;;;;;;;;;;;;;;;17.43;60.53;102551.47;1025511;29;705;-62
2022/05/08 02:07:47;;;;;;;;;;;;;;;17.43;60.65;102545.22;1029963;28;623;-63
2022/05/08 02:08:37;;;;;;;;;;;;;;;17.41;60.10;102539.94;1024620;29;706;-62
2022/05/08 02:09:28;;;;;;;;;;;;;;;17.39;60.77;102539.16;1021685;29;540;-62
2022/05/08 02:10:18;;;;;;;;;;;;;;;17.39;60.04;102547.25;1021084;29;671;-66
2022/05/08 02:11:09;;;;;;;;;;;;;;;17.39;60.83;102541.88;1024483;29;645;-62
2022/05/08 02:11:59;;;;;;;;;;;;;;;17.39;59.92;102546.38;1027522;28;674;-62
2022/05/08 02:12:50;;;;;;;;;;;;;;;17.39;60.44;102541.00;1026337;28;639;-62
2022/05/08 02:13:40;;;;;;;;;;;;;;;17.38;60.04;102542.84;1027621;28;655;-62
2022/05/08 02:14:30;;;;;;;;;;;;;;;17.37;59.55;102543.81;1020544;29;632;-62
2022/05/08 02:15:21;;;;;;;;;;;;;;;17.36;60.53;102542.09;1021501;29;651;-62
2022/05/08 02:16:11;;;;;;;;;;;;;;;17.37;60.28;102545.66;1024551;29;620;-62
2022/05/08 02:17:02;;;;;;;;;;;;;;;17.35;59.90;102541.22;1026264;28;615;-62
2022/05/08 02:17:52;;;;;;;;;;;;;;;17.35;59.87;102543.06;1027000;28;744;-63
2022/05/08 02:18:42;;;;;;;;;;;;;;;17.35;59.98;102540.38;1026940;28;626;-63
2022/05/08 02:19:33;;;;;;;;;;;;;;;17.36;59.82;102536.72;1026647;28;690;-62
2022/05/08 02:20:24;;;;;;;;;;;;;;;17.35;60.09;102541.22;1025594;29;670;-62
2022/05/08 02:21:14;;;;;;;;;;;;;;;17.37;60.27;102543.81;1026756;28;705;-63
2022/05/08 02:22:04;;;;;;;;;;;;;;;17.34;60.22;102544.03;1027574;28;611;-62
2022/05/08 02:22:55;;;;;;;;;;;;;;;17.35;59.90;102540.38;1026699;28;647;-63
2022/05/08 02:23:45;;;;;;;;;;;;;;;17.32;59.71;102544.13;1027582;28;806;-63
2022/05/08 02:24:36;;;;;;;;;;;;;;;17.31;59.79;102542.41;1026667;28;641;-63
2022/05/08 02:25:26;;;;;;;;;;;;;;;17.30;59.71;102546.06;1026614;28;678;-63
2022/05/08 02:26:17;;;;;;;;;;;;;;;17.31;60.13;102545.09;1027343;28;635;-63
2022/05/08 02:27:07;;;;;;;;;;;;;;;17.30;60.17;102537.97;1026605;28;659;-63
2022/05/08 02:27:57;;;;;;;;;;;;;;;17.31;59.64;102544.22;1026183;28;1644;-63
2022/05/08 02:28:48;;;;;;;;;;;;;;;17.32;60.08;102540.56;1026406;28;646;-66
2022/05/08 02:29:38;;;;;;;;;;;;;;;17.31;60.03;102545.09;1026232;28;607;-63
2022/05/08 02:30:29;;;;;;;;;;;;;;;17.30;59.22;102546.06;1026112;28;666;-63
2022/05/08 02:31:19;;;;;;;;;;;;;;;17.31;59.88;102549.63;1025058;29;619;-62
2022/05/08 02:32:10;;;;;;;;;;;;;;;17.30;59.63;102550.56;1026592;28;674;-62
2022/05/08 02:33:00;;;;;;;;;;;;;;;17.29;59.89;102540.75;1026086;28;687;-63
2022/05/08 02:33:51;;;;;;;;;;;;;;;17.28;59.72;102544.41;1026852;28;635;-62
2022/05/08 02:34:41;;;;;;;;;;;;;;;17.28;59.21;102550.69;1026144;28;717;-62
2022/05/08 02:35:33;;;;;;;;;;;;;;;17.27;59.62;102540.00;1025097;29;682;-62
2022/05/08 02:36:24;;;;;;;;;;;;;;;17.26;60.01;102540.97;1026350;28;695;-62
2022/05/08 02:37:14;;;;;;;;;;;;;;;17.26;60.05;102547.22;1026074;28;662;-63
2022/05/08 02:38:05;;;;;;;;;;;;;;;17.26;59.98;102551.75;1021417;29;1770;-62
2022/05/08 02:38:55;;;;;;;;;;;;;;;17.25;59.91;102540.09;1025420;29;658;-62
2022/05/08 02:39:45;;;;;;;;;;;;;;;17.25;59.53;102542.78;1029485;28;654;-62
2022/05/08 02:40:36;;;;;;;;;;;;;;;17.25;59.57;102548.19;1028591;28;699;-62
2022/05/08 02:41:26;;;;;;;;;;;;;;;17.24;59.68;102546.44;1029033;28;678;-63
2022/05/08 02:42:17;;;;;;;;;;;;;;;17.24;60.06;102542.88;1028805;28;624;-62
2022/05/08 02:43:07;;;;;;;;;;;;;;;17.24;59.88;102553.66;1028661;28;623;-63
2022/05/08 02:43:57;;;;;;;;;;;;;;;17.24;59.28;102559.91;1029545;28;604;-62
2022/05/08 02:44:48;;;;;;;;;;;;;;;17.24;59.34;102553.66;1024308;29;679;-62
2022/05/08 02:45:38;;;;;;;;;;;;;;;17.23;59.63;102558.19;1026818;28;632;-62
2022/05/08 02:46:29;;;;;;;;;;;;;;;17.23;59.83;102551.94;1029427;28;1030;-63
2022/05/08 02:47:19;;;;;;;;;;;;;;;17.23;59.90;102552.81;1029006;28;623;-62
2022/05/08 02:48:09;;;;;;;;;;;;;;;17.23;59.48;102550.09;1028704;28;1679;-62
2022/05/08 02:49:00;;;;;;;;;;;;;;;17.22;60.20;102551.06;1030064;28;638;-63
2022/05/08 02:49:50;;;;;;;;;;;;;;;17.23;59.78;102551.94;1030053;28;1981;-63
2022/05/08 02:50:41;;;;;;;;;;;;;;;17.23;59.19;102554.63;1030045;28;1198;-63
2022/05/08 02:51:31;;;;;;;;;;;;;;;17.22;59.35;102560.97;1030116;28;667;-62
2022/05/08 02:52:22;;;;;;;;;;;;;;;17.22;59.77;102561.84;1030165;28;655;-62
2022/05/08 02:53:12;;;;;;;;;;;;;;;17.21;59.71;102551.16;1030219;28;686;-62
2022/05/08 02:54:02;;;;;;;;;;;;;;;17.20;59.71;102553.00;1030772;28;666;-62
2022/05/08 02:54:53;;;;;;;;;;;;;;;17.21;59.84;102560.13;1030247;28;663;-62
2022/05/08 02:59:11;;;;;;;;;;;;;;;17.19;59.67;102555.81;1028885;28;628;-62
2022/05/08 03:00:01;;;;;;;;;;;;;;;17.17;59.86;102552.34;1024245;29;648;-62
2022/05/08 03:00:52;;;;;;;;;;;;;;;17.17;59.35;102552.34;1026036;29;655;-64
2022/05/08 03:01:42;;;;;;;;;;;;;;;17.16;59.59;102548.81;1025706;28;666;-63
2022/05/08 03:02:33;;;;;;;;;;;;;;;17.15;59.15;102552.47;1025891;28;658;-62
2022/05/08 03:03:23;;;;;;;;;;;;;;;17.17;59.17;102552.34;1030224;28;642;-62
2022/05/08 03:04:14;;;;;;;;;;;;;;;17.16;59.39;102556.03;1024218;29;722;-63
2022/05/08 03:05:04;;;;;;;;;;;;;;;17.15;59.49;102554.28;1025311;29;671;-63
2022/05/08 03:05:55;;;;;;;;;;;;;;;17.15;59.65;102555.16;1025846;28;698;-63
2022/05/08 03:06:45;;;;;;;;;;;;;;;17.15;59.57;102554.28;1025146;29;1735;-62
2022/05/08 03:07:35;;;;;;;;;;;;;;;17.14;59.02;102553.41;1032109;28;696;-61
2022/05/08 03:08:26;;;;;;;;;;;;;;;17.12;59.15;102552.66;1031152;28;1746;-61
2022/05/08 03:09:16;;;;;;;;;;;;;;;17.13;59.01;102554.38;1034105;28;733;-61
2022/05/08 03:10:07;;;;;;;;;;;;;;;17.12;59.25;102551.78;1032084;28;1887;-61
2022/05/08 03:12:07;;;;;;;;;;;;;;;17.13;59.64;102548.13;1029347;28;651;-63
2022/05/08 03:12:58;;;;;;;;;;;;;;;17.10;59.68;102546.50;1026062;28;850;-62
2022/05/08 03:13:48;;;;;;;;;;;;;;;17.11;59.42;102548.22;1024591;29;914;-63
2022/05/08 03:14:39;;;;;;;;;;;;;;;17.09;59.12;102546.59;1028512;28;672;-63
2022/05/08 03:15:31;;;;;;;;;;;;;;;17.10;59.18;102553.72;1029527;28;658;-62
2022/05/08 03:16:26;;;;;;;;;;;;;;;17.09;59.49;102557.38;1029999;28;699;-62
2022/05/08 03:17:16;;;;;;;;;;;;;;;17.07;58.87;102557.47;1026193;28;718;-61
2022/05/08 03:18:06;;;;;;;;;;;;;;;17.08;59.47;102552.94;1026137;28;724;-62
2022/05/08 03:18:57;;;;;;;;;;;;;;;17.08;58.98;102558.34;1021314;29;717;-62
2022/05/08 03:19:47;;;;;;;;;;;;;;;17.06;59.56;102552.19;1021063;29;825;-61
2022/05/08 03:20:40;;;;;;;;;;;;;;;17.09;59.04;102554.69;1024769;29;639;-61
2022/05/08 03:21:30;;;;;;;;;;;;;;;17.08;59.25;102552.94;1026025;28;682;-61
2022/05/08 03:22:20;;;;;;;;;;;;;;;17.07;58.93;102551.22;1026037;28;694;-62
2022/05/08 03:23:11;;;;;;;;;;;;;;;17.06;59.37;102560.25;1025880;28;738;-62
2022/05/08 03:24:01;;;;;;;;;;;;;;;17.05;59.09;102558.53;1025626;29;642;-63
2022/05/08 03:24:53;;;;;;;;;;;;;;;17.05;59.30;102563.91;1026080;28;646;-62
2022/05/08 03:25:44;;;;;;;;;;;;;;;17.03;59.04;102566.69;1026341;28;650;-62
2022/05/08 03:26:36;;;;;;;;;;;;;;;17.06;58.77;102562.94;1029398;28;1671;-62
2022/05/08 03:27:26;;;;;;;;;;;;;;;17.04;58.86;102568.44;1029279;28;675;-62
2022/05/08 03:28:17;;;;;;;;;;;;;;;17.03;58.97;102572.09;1029489;28;673;-63
2022/05/08 03:29:07;;;;;;;;;;;;;;;17.04;59.31;102567.56;1027968;28;678;-62
2022/05/08 03:29:58;;;;;;;;;;;;;;;17.04;58.93;102562.19;1029409;28;1915;-62
2022/05/08 03:30:48;;;;;;;;;;;;;;;17.02;59.40;102559.59;1028874;28;663;-63
2022/05/08 03:31:39;;;;;;;;;;;;;;;17.04;58.74;102565.75;1029356;28;686;-63
2022/05/08 03:32:29;;;;;;;;;;;;;;;17.03;59.13;102566.69;1028314;28;678;-64
2022/05/08 03:33:21;;;;;;;;;;;;;;;17.03;59.21;102572.09;1029374;28;678;-63
2022/05/08 03:34:11;;;;;;;;;;;;;;;17.02;58.94;102568.53;1029544;28;745;-63
2022/05/08 03:35:02;;;;;;;;;;;;;;;17.00;59.11;102567.78;1029316;28;1703;-63
2022/05/08 03:35:53;;;;;;;;;;;;;;;16.99;58.68;102571.44;1030625;28;677;-64
2022/05/08 03:36:44;;;;;;;;;;;;;;;17.00;58.85;102569.63;1029399;28;732;-63
2022/05/08 03:37:34;;;;;;;;;;;;;;;17.00;59.48;102570.50;1029553;28;878;-63
2022/05/08 03:38:25;;;;;;;;;;;;;;;16.99;58.72;102570.59;1029968;28;611;-64
2022/05/08 03:39:16;;;;;;;;;;;;;;;16.97;59.27;102562.59;1030065;28;635;-62
2022/05/08 03:40:06;;;;;;;;;;;;;;;16.98;59.27;102574.25;1029905;28;784;-63
2022/05/08 03:40:57;;;;;;;;;;;;;;;16.96;59.36;102571.63;1030617;28;665;-63
2022/05/08 03:41:47;;;;;;;;;;;;;;;16.96;58.96;102574.34;1029970;28;717;-63
2022/05/08 03:42:37;;;;;;;;;;;;;;;16.96;59.05;102574.34;1029830;28;718;-63
2022/05/08 03:43:28;;;;;;;;;;;;;;;16.97;58.53;102572.50;1024613;29;646;-62
2022/05/08 03:44:18;;;;;;;;;;;;;;;16.96;58.84;102579.72;1025671;28;690;-63
2022/05/08 03:45:09;;;;;;;;;;;;;;;16.95;58.87;102572.59;1026015;28;1534;-63
2022/05/08 03:45:59;;;;;;;;;;;;;;;16.95;59.29;102572.59;1024471;29;908;-62
2022/05/08 03:46:50;;;;;;;;;;;;;;;16.94;58.76;102576.25;1025428;29;673;-63
2022/05/08 03:47:40;;;;;;;;;;;;;;;16.94;58.68;102573.56;1025428;29;643;-62
2022/05/08 03:48:31;;;;;;;;;;;;;;;16.95;59.09;102577.13;1024812;29;643;-63
2022/05/08 03:49:21;;;;;;;;;;;;;;;16.95;59.14;102575.28;1025477;29;714;-63
2022/05/08 03:50:12;;;;;;;;;;;;;;;16.96;58.59;102578.84;1024796;29;1891;-63
2022/05/08 03:51:02;;;;;;;;;;;;;;;16.94;58.95;102570.88;1028879;28;651;-63
2022/05/08 03:51:52;;;;;;;;;;;;;;;16.95;58.89;102579.81;1029986;28;741;-63
2022/05/08 03:52:43;;;;;;;;;;;;;;;16.94;58.92;102576.25;1024558;29;635;-63
2022/05/08 03:53:34;;;;;;;;;;;;;;;16.93;58.95;102576.34;1024541;29;1553;-63
2022/05/08 03:54:24;;;;;;;;;;;;;;;16.93;58.49;102582.59;1029230;28;686;-63
2022/05/08 03:55:18;;;;;;;;;;;;;;;16.93;58.86;102582.59;1028007;28;1290;-64
2022/05/08 03:56:08;;;;;;;;;;;;;;;16.93;59.08;102577.22;1029822;28;662;-64
2022/05/08 03:56:59;;;;;;;;;;;;;;;16.93;58.61;102588.00;1029796;28;690;-64
2022/05/08 03:57:49;;;;;;;;;;;;;;;16.92;58.84;102577.31;1029882;28;674;-64
2022/05/08 03:58:39;;;;;;;;;;;;;;;16.93;59.11;102584.44;1028679;28;664;-64
2022/05/08 03:59:30;;;;;;;;;;;;;;;16.92;58.57;102586.25;1029319;28;694;-64
2022/05/08 04:00:21;;;;;;;;;;;;;;;16.91;59.04;102584.53;1023961;29;635;-64
2022/05/08 04:01:12;;;;;;;;;;;;;;;16.91;58.53;102579.13;1025202;29;525;-63
2022/05/08 04:02:02;;;;;;;;;;;;;;;16.91;58.82;102579.13;1025649;28;710;-63
2022/05/08 04:02:53;;;;;;;;;;;;;;;16.91;59.09;102584.53;1025034;29;678;-63
2022/05/08 04:03:43;;;;;;;;;;;;;;;16.91;59.02;102581.84;1028606;28;1469;-63
2022/05/08 04:04:35;;;;;;;;;;;;;;;16.90;58.98;102585.50;1029825;28;694;-63
2022/05/08 04:05:26;;;;;;;;;;;;;;;16.90;58.48;102581.94;1025440;28;1676;-63
2022/05/08 04:06:16;;;;;;;;;;;;;;;16.90;58.80;102593.56;1024562;29;659;-63
2022/05/08 04:07:06;;;;;;;;;;;;;;;16.90;59.15;102584.63;1028643;28;652;-62
2022/05/08 04:07:57;;;;;;;;;;;;;;;16.88;58.81;102579.34;1029889;28;635;-63
2022/05/08 04:08:47;;;;;;;;;;;;;;;16.89;58.42;102581.06;1024441;29;675;-63
2022/05/08 04:09:38;;;;;;;;;;;;;;;16.88;58.45;102584.72;1024790;29;631;-62
2022/05/08 04:10:28;;;;;;;;;;;;;;;16.88;58.66;102583.84;1028051;28;667;-63
2022/05/08 04:11:19;;;;;;;;;;;;;;;16.88;58.74;102579.34;1029799;28;619;-62
2022/05/08 04:12:10;;;;;;;;;;;;;;;16.87;58.60;102590.19;1029969;28;702;-63
2022/05/08 04:13:00;;;;;;;;;;;;;;;16.87;58.63;102593.75;1029963;28;658;-63
2022/05/08 04:13:51;;;;;;;;;;;;;;;16.86;59.07;102583.94;1026178;28;627;-63
2022/05/08 04:14:41;;;;;;;;;;;;;;;16.86;58.76;102591.16;1026099;28;745;-63
2022/05/08 04:16:41;;;;;;;;;;;;;;;16.85;58.16;102587.59;1032185;28;820;-63
2022/05/08 04:17:33;;;;;;;;;;;;;;;16.87;58.61;102592.88;1028117;28;621;-63
2022/05/08 04:18:23;;;;;;;;;;;;;;;16.85;58.34;102584.91;1031623;28;741;-63
2022/05/08 04:19:13;;;;;;;;;;;;;;;16.85;58.59;102590.28;1030484;28;603;-62
2022/05/08 04:20:07;;;;;;;;;;;;;;;16.86;58.26;102583.09;1030426;28;856;-60
2022/05/08 04:20:57;;;;;;;;;;;;;;;16.85;58.59;102590.28;1030445;28;698;-61
2022/05/08 04:21:48;;;;;;;;;;;;;;;16.85;58.93;102595.69;1032975;28;690;-61
2022/05/08 04:24:57;;;;;;;;;;;;;;;16.84;58.87;102588.56;1028974;29;745;-63
2022/05/08 04:25:50;;;;;;;;;;;;;;;16.84;58.64;102601.19;1026649;28;729;-65
2022/05/08 04:26:40;;;;;;;;;;;;;;;16.83;58.43;102597.63;1027406;28;817;-65
2022/05/08 04:27:31;;;;;;;;;;;;;;;16.83;58.40;102596.75;1026048;29;651;-65
2022/05/08 04:28:21;;;;;;;;;;;;;;;16.82;58.37;102595.03;1020418;29;741;-69
2022/05/08 04:29:12;;;;;;;;;;;;;;;16.80;58.23;102597.81;1021116;29;867;-65
2022/05/08 04:30:02;;;;;;;;;;;;;;;16.81;58.40;102596.00;1027654;29;1898;-65
2022/05/08 04:30:53;;;;;;;;;;;;;;;16.81;58.54;102594.16;1027922;29;829;-65
2022/05/08 04:31:43;;;;;;;;;;;;;;;16.81;58.89;102590.59;1027979;28;717;-65
2022/05/08 04:32:34;;;;;;;;;;;;;;;16.80;58.15;102597.81;1026134;28;678;-64
2022/05/08 04:33:24;;;;;;;;;;;;;;;16.80;58.64;102597.81;1028380;28;789;-64
2022/05/08 04:34:15;;;;;;;;;;;;;;;16.79;58.58;102596.09;1026543;28;1501;-64
2022/05/08 04:35:05;;;;;;;;;;;;;;;16.80;58.79;102599.66;1028474;28;683;-63